createdAt,value
2022-09-12T07:02:37.050Z,16.28
2022-09-12T07:07:39.025Z,16.69
2022-09-12T07:12:40.940Z,16.84
2022-09-12T07:17:59.718Z,17.12
2022-09-12T07:23:01.578Z,17.34
2022-09-12T07:28:23.719Z,17.65
2022-09-12T07:33:28.564Z,17.63
2022-09-12T07:38:30.942Z,17.79
2022-09-12T07:43:52.714Z,17.89
2022-09-12T07:49:08.983Z,17.80
2022-09-12T07:54:10.963Z,17.71
2022-09-12T07:59:13.620Z,17.95
2022-09-12T08:04:15.896Z,18.03
2022-09-12T08:09:17.869Z,17.89
2022-09-12T08:14:19.525Z,18.03
2022-09-12T08:19:22.822Z,18.06
2022-09-12T08:24:25.122Z,17.99
2022-09-12T08:29:27.054Z,18.01
2022-09-12T08:34:48.727Z,18.19
2022-09-12T08:40:15.299Z,18.27
2022-09-12T08:45:34.233Z,18.27
2022-09-12T08:50:36.157Z,18.61
2022-09-12T08:55:42.668Z,19.12
2022-09-12T09:01:00.109Z,19.62
2022-09-12T09:06:18.503Z,20.03
2022-09-12T09:11:48.061Z,19.90
2022-09-12T09:16:53.221Z,19.25
2022-09-12T09:21:59.981Z,19.25
2022-09-12T09:27:23.592Z,19.58
2022-09-12T09:32:37.507Z,19.83
2022-09-12T09:37:43.967Z,20.05
2022-09-12T09:42:54.077Z,20.03
2022-09-12T09:48:10.940Z,19.85
2022-09-12T09:53:39.585Z,19.74
2022-09-12T09:58:41.570Z,19.88
2022-09-12T10:03:54.623Z,19.87
2022-09-12T10:09:24.828Z,19.85
2022-09-12T10:14:42.828Z,19.77
2022-09-12T10:19:49.836Z,19.99
2022-09-12T10:25:01.931Z,19.97
2022-09-12T10:30:04.818Z,19.71
2022-09-12T10:35:43.977Z,20.20
2022-09-12T10:40:45.696Z,20.47
2022-09-12T10:45:47.466Z,20.69
2022-09-12T10:50:49.478Z,20.99
2022-09-12T10:56:01.960Z,21.19
2022-09-12T11:01:19.150Z,20.96
2022-09-12T11:06:30.638Z,20.67
2022-09-12T11:12:28.041Z,20.16
2022-09-12T11:18:05.378Z,19.70
2022-09-12T11:23:36.850Z,19.66
2022-09-12T11:28:51.406Z,19.89
2022-09-12T11:33:56.650Z,20.29
2022-09-12T11:39:03.975Z,20.53
2022-09-12T11:44:24.164Z,20.74
2022-09-12T11:49:48.979Z,20.30
2022-09-12T11:55:01.019Z,20.05
2022-09-12T12:00:03.259Z,20.05
2022-09-12T12:05:22.563Z,20.30
2022-09-12T12:10:25.189Z,20.57
2022-09-12T12:15:28.512Z,20.47
2022-09-12T12:20:30.767Z,20.47
2022-09-12T12:25:53.328Z,20.94
2022-09-12T12:30:55.164Z,21.67
2022-09-12T12:36:21.783Z,21.90
2022-09-12T12:41:36.933Z,22.35
2022-09-12T12:46:38.915Z,22.00
2022-09-12T12:51:49.842Z,21.48
2022-09-12T12:57:01.612Z,21.60
2022-09-12T13:02:04.856Z,21.55
2022-09-12T13:07:09.094Z,21.02
2022-09-12T13:12:19.844Z,20.46
2022-09-12T13:17:27.686Z,20.69
2022-09-12T13:22:48.859Z,21.36
2022-09-12T13:28:20.076Z,22.37
2022-09-12T13:33:33.709Z,22.70
2022-09-12T13:39:05.689Z,22.07
2022-09-12T13:44:13.215Z,21.08
2022-09-12T13:49:35.043Z,20.62
2022-09-12T13:54:38.999Z,20.26
2022-09-12T13:59:42.830Z,19.88
2022-09-12T14:05:10.418Z,19.71
2022-09-12T14:10:28.165Z,19.32
2022-09-12T14:15:36.321Z,18.98
2022-09-12T14:20:39.535Z,18.87
2022-09-12T14:25:48.019Z,19.14
2022-09-12T14:31:06.841Z,19.03
2022-09-12T14:36:12.283Z,19.07
2022-09-12T14:41:23.108Z,19.23
2022-09-12T14:46:32.903Z,19.26
2022-09-12T14:51:38.691Z,18.99
2022-09-12T14:56:53.360Z,18.74
2022-09-12T15:02:13.365Z,18.67
2022-09-12T15:07:30.240Z,18.91
2022-09-12T15:12:32.329Z,19.36
2022-09-12T15:17:34.212Z,19.74
2022-09-12T15:22:38.564Z,19.88
2022-09-12T15:27:43.100Z,19.68
2022-09-12T15:32:45.670Z,19.52
2022-09-12T15:38:01.070Z,19.51
2022-09-12T15:43:13.422Z,19.37
2022-09-12T15:48:15.421Z,19.06
2022-09-12T15:53:17.647Z,18.69
2022-09-12T15:58:19.771Z,18.41
2022-09-12T16:03:42.791Z,18.42
2022-09-12T16:08:46.592Z,18.35
2022-09-12T16:13:49.112Z,18.28
2022-09-12T16:18:52.219Z,18.15
2022-09-12T16:23:54.190Z,17.94
2022-09-12T16:28:59.709Z,17.59
2022-09-12T16:34:01.562Z,17.26
2022-09-12T16:39:04.058Z,17.03
2022-09-12T16:44:05.851Z,16.80
2022-09-12T16:49:27.698Z,16.61
2022-09-12T16:54:37.176Z,16.46
2022-09-12T16:59:39.304Z,16.30
2022-09-12T17:04:41.940Z,16.14
2022-09-12T17:09:47.854Z,15.97
2022-09-12T17:14:52.656Z,15.83
2022-09-12T17:19:54.532Z,15.71
2022-09-12T17:25:00.114Z,15.60
2022-09-12T17:30:15.023Z,15.41
2022-09-12T17:35:17.067Z,15.17
2022-09-12T17:40:19.161Z,14.92
2022-09-12T17:45:21.027Z,14.67
2022-09-12T17:50:39.494Z,14.42
2022-09-12T17:55:41.982Z,14.17
2022-09-12T18:01:02.799Z,13.91
2022-09-12T18:06:05.192Z,13.66
2022-09-12T18:11:07.558Z,13.47
2022-09-12T18:16:12.426Z,13.26
2022-09-12T18:21:14.409Z,13.07
2022-09-12T18:26:16.389Z,12.92
2022-09-12T18:31:24.270Z,12.78
2022-09-12T18:36:26.615Z,12.66
2022-09-12T18:41:29.195Z,12.57
2022-09-12T18:46:33.093Z,12.50
2022-09-12T18:51:37.257Z,12.43
2022-09-12T18:56:40.961Z,12.37
2022-09-12T19:01:43.597Z,12.31
2022-09-12T19:06:50.465Z,12.20
2022-09-12T19:11:52.738Z,12.10
2022-09-12T19:16:54.518Z,12.07
2022-09-12T19:21:56.601Z,12.03
2022-09-12T19:26:58.475Z,11.94
2022-09-12T19:32:00.456Z,11.86
2022-09-12T19:37:02.744Z,11.82
2022-09-12T19:42:04.590Z,11.75
2022-09-12T19:47:09.501Z,11.70
2022-09-12T19:52:14.359Z,11.66
2022-09-12T19:57:18.708Z,11.57
2022-09-12T20:02:20.468Z,11.46
2022-09-12T20:07:42.669Z,11.39
2022-09-12T20:12:44.813Z,11.30
2022-09-12T20:17:46.584Z,11.19
2022-09-12T20:22:52.771Z,11.09
2022-09-12T20:27:59.473Z,11.01
2022-09-12T20:33:01.906Z,10.96
2022-09-12T20:38:03.672Z,10.88
2022-09-12T20:43:05.335Z,10.77
2022-09-12T20:48:07.051Z,10.70
2022-09-12T20:53:09.097Z,10.78
2022-09-12T20:58:10.862Z,10.85
2022-09-12T21:03:14.033Z,10.93
2022-09-12T21:08:15.891Z,11.02
2022-09-12T21:13:17.652Z,11.11
2022-09-12T21:18:19.511Z,11.17
2022-09-12T21:23:41.693Z,11.22
2022-09-12T21:28:53.025Z,11.15
2022-09-12T21:33:55.872Z,11.06
2022-09-12T21:38:59.318Z,10.95
2022-09-12T21:44:01.334Z,10.87
2022-09-12T21:49:03.292Z,10.78
2022-09-12T21:54:05.418Z,10.68
2022-09-12T21:59:07.225Z,10.58
2022-09-12T22:04:10.645Z,10.56
2022-09-12T22:09:12.632Z,10.57
2022-09-12T22:14:14.752Z,10.53
2022-09-12T22:19:16.649Z,10.53
2022-09-12T22:24:27.492Z,10.49
2022-09-12T22:29:29.244Z,10.49
2022-09-12T22:34:31.549Z,10.45
2022-09-12T22:39:33.279Z,10.45
2022-09-12T22:44:35.752Z,10.45
2022-09-12T22:49:37.480Z,10.43
2022-09-12T22:54:39.397Z,10.44
2022-09-12T22:59:41.269Z,10.46
2022-09-12T23:04:43.467Z,10.46
2022-09-12T23:09:46.368Z,10.43
2022-09-12T23:14:48.167Z,10.40
2022-09-12T23:19:49.858Z,10.36
2022-09-12T23:24:51.543Z,10.31
2022-09-12T23:29:53.957Z,10.24
2022-09-12T23:34:55.630Z,10.19
2022-09-12T23:39:57.518Z,10.17
2022-09-12T23:44:59.311Z,10.16
2022-09-12T23:50:01.142Z,10.14
2022-09-12T23:55:03.432Z,10.10
